Odessa, FL (33556)

9:40 AM EDT on March 27, 2015 (GMT -0400)
Lake Alice | | Change Station
CLOSE
Current Station
Personal Weather Station
Location: Odessa, FL
Elevation: 46 ft
Nearby Weather Stations

Elev 46 ft 28.13 °N, 82.60 °W | Updated 10 minutes ago

Partly Cloudy
Partly Cloudy
70.9 °F
Feels Like 70.9 °F
N
2.7
Wind Variable Wind from SSW

Today
High -- | Low -- °F
--% Chance of Precip.
Yesterday
High -- | Low -- °F
Precip. -- in
7:26 AM 7:45 PM
First Quarter, 52% visible
Pressure 29.89 in
Visibility 10.0 miles
Clouds Mostly Cloudy 17000 ft
Dew Point 70 °F
Humidity 98%
Rainfall 0.17 in
Snow Depth Not available.
UV 1 out of 12
Pollen 5.00 out of 12
Air Quality Not available.
Flu Activity Not available.
METAR KTPA 271253Z 19009KT 10SM BKN170 22/19 A2989 RMK AO2 SLP121 T02220194

More Conditions Fewer Conditions

Pressure 29.89 in
Visibility 10.0 miles
Clouds Mostly Cloudy 17000 ft
Dew Point 70 °F
Humidity 98%
Rainfall 0.17 in
Snow Depth Not available.
UV 1 out of 12
Pollen 5.00 out of 12
Air Quality Not available.
Flu Activity Not available.
METAR KTPA 271253Z 19009KT 10SM BKN170 22/19 A2989 RMK AO2 SLP121 T02220194

More Conditions Fewer Conditions

10-Day Weather Forecast

Almanac

Astronomy

Mar. 27, 2015 Rise Set
Actual Time
Civil Twilight
Nautical Twilight
Astronomical Twilight
Moon
Length of Visible Light
Length of Day
Tomorrow will be .
, % of the Moon is Illuminated

Today's Extremes

State Highs State Lows

Community

WunderPhotos

Upload Photos

1,808,735 photos uploaded!

WunderBlogs® & News

Nearby

Air Quality

  Air Quality AQ Index Pollutant
Not available.

Snow Depth

Station Depth Elevation

Earthquake Activity

City Distance Mag. Time & Date
Minimum magnitude displayed is 2.5.

Coastal Water Temperatures

Place Temperature

Stations

Nearby Weather Stations

Station Location Temp. Windchill Dew Point Humidity Wind Precip. Elev Updated Type